createdAt,value
2018-12-22T00:01:06.955Z,95.80
2018-12-22T00:03:35.775Z,95.80
2018-12-22T00:06:04.598Z,95.50
2018-12-22T00:08:33.283Z,95.40
2018-12-22T00:11:02.048Z,95.00
2018-12-22T00:13:30.722Z,94.60
2018-12-22T00:15:59.504Z,94.10
2018-12-22T00:18:28.205Z,94.10
2018-12-22T00:20:56.971Z,93.70
2018-12-22T00:23:25.692Z,93.80
2018-12-22T00:25:54.481Z,93.90
2018-12-22T00:28:24.228Z,94.00
2018-12-22T00:30:53.095Z,93.90
2018-12-22T00:33:21.811Z,94.00
2018-12-22T00:35:50.635Z,94.00
2018-12-22T00:38:19.446Z,94.10
2018-12-22T00:40:48.185Z,94.30
2018-12-22T00:43:16.914Z,94.30
2018-12-22T00:45:45.637Z,94.30
2018-12-22T00:48:14.366Z,94.60
2018-12-22T00:50:43.157Z,94.60
2018-12-22T00:53:11.863Z,94.40
2018-12-22T00:55:40.570Z,94.90
2018-12-22T00:58:09.358Z,95.10
2018-12-22T01:00:38.224Z,95.70
2018-12-22T01:03:06.914Z,95.60
2018-12-22T01:05:35.850Z,95.80
2018-12-22T01:08:04.747Z,96.10
2018-12-22T01:10:33.506Z,96.30
2018-12-22T01:13:02.412Z,96.60
2018-12-22T01:15:31.266Z,96.70
2018-12-22T01:18:00.008Z,97.00
2018-12-22T01:20:28.838Z,97.00
2018-12-22T01:22:57.533Z,97.50
2018-12-22T01:25:26.350Z,97.70
2018-12-22T01:27:55.227Z,98.00
2018-12-22T01:30:24.034Z,97.90
2018-12-22T01:32:52.817Z,98.10
2018-12-22T01:35:21.543Z,98.00
2018-12-22T01:37:50.356Z,97.60
2018-12-22T01:40:20.161Z,97.40
2018-12-22T01:42:48.944Z,97.60
2018-12-22T01:45:17.786Z,97.60
2018-12-22T01:47:46.526Z,97.10
2018-12-22T01:50:15.292Z,97.30
2018-12-22T01:52:44.130Z,97.40
2018-12-22T01:55:13.028Z,97.00
2018-12-22T01:57:41.852Z,97.10
2018-12-22T02:00:10.613Z,97.30
2018-12-22T02:02:39.455Z,97.30
2018-12-22T02:05:08.262Z,97.30
2018-12-22T02:07:37.100Z,96.90
2018-12-22T02:10:05.991Z,97.20
2018-12-22T02:12:34.748Z,97.00
2018-12-22T02:15:04.195Z,97.20
2018-12-22T02:17:33.046Z,97.20
2018-12-22T02:20:01.790Z,97.60
2018-12-22T02:22:30.526Z,97.40
2018-12-22T02:24:59.336Z,97.40
2018-12-22T02:27:28.186Z,97.70
2018-12-22T02:29:57.003Z,97.40
2018-12-22T02:32:25.819Z,97.60
2018-12-22T02:34:54.575Z,97.50
2018-12-22T02:37:23.385Z,98.10
2018-12-22T02:39:52.079Z,98.20
2018-12-22T02:42:20.769Z,98.60
2018-12-22T02:44:49.604Z,99.00
2018-12-22T02:47:18.330Z,98.50
2018-12-22T02:49:47.191Z,98.20
2018-12-22T02:52:16.031Z,98.70
2018-12-22T02:54:44.799Z,98.50
2018-12-22T02:57:13.537Z,98.60
2018-12-22T02:59:42.342Z,98.30
2018-12-22T03:02:11.152Z,98.10
2018-12-22T03:04:39.946Z,98.50
2018-12-22T03:07:08.711Z,98.50
2018-12-22T03:09:37.436Z,98.30
2018-12-22T03:12:06.258Z,98.40
2018-12-22T03:14:42.839Z,98.50
2018-12-22T03:17:11.498Z,98.50
2018-12-22T03:19:40.312Z,98.60
2018-12-22T03:22:09.059Z,98.80
2018-12-22T03:24:37.754Z,98.20
2018-12-22T03:27:06.410Z,98.20
2018-12-22T03:29:35.263Z,98.40
2018-12-22T03:32:04.080Z,98.50
2018-12-22T03:34:32.856Z,98.30
2018-12-22T03:37:01.530Z,98.40
2018-12-22T03:39:30.263Z,98.50
2018-12-22T03:41:59.055Z,98.70
2018-12-22T03:44:28.076Z,98.60
2018-12-22T03:46:56.883Z,98.80
2018-12-22T03:49:25.673Z,98.80
2018-12-22T03:51:54.488Z,98.80
2018-12-22T03:54:23.373Z,98.90
2018-12-22T03:56:52.116Z,98.90
2018-12-22T03:59:25.037Z,99.20
2018-12-22T04:01:51.608Z,99.40
2018-12-22T04:04:20.455Z,99.50
2018-12-22T04:06:49.302Z,99.10
2018-12-22T04:09:17.981Z,99.10
2018-12-22T04:11:46.812Z,98.90
2018-12-22T04:14:15.518Z,99.30
2018-12-22T04:16:44.319Z,98.60
2018-12-22T04:19:13.003Z,98.60
2018-12-22T04:21:41.727Z,98.60
2018-12-22T04:24:10.620Z,98.60
2018-12-22T04:26:39.551Z,98.50
2018-12-22T04:29:08.356Z,98.70
2018-12-22T04:31:37.188Z,98.70
2018-12-22T04:34:05.964Z,99.00
2018-12-22T04:36:34.863Z,98.70
2018-12-22T04:39:05.906Z,98.50
2018-12-22T04:41:34.684Z,98.40
2018-12-22T04:44:03.539Z,98.70
2018-12-22T04:46:32.315Z,98.90
2018-12-22T04:49:01.026Z,98.80
2018-12-22T04:51:29.798Z,98.80
2018-12-22T04:53:58.480Z,98.80
2018-12-22T04:56:27.253Z,99.20
2018-12-22T04:58:55.996Z,98.90
2018-12-22T05:01:24.857Z,98.90
2018-12-22T05:03:53.616Z,99.20
2018-12-22T05:06:22.438Z,98.80
2018-12-22T05:08:51.223Z,98.60
2018-12-22T05:11:19.964Z,98.50
2018-12-22T05:13:48.860Z,98.20
2018-12-22T05:16:17.670Z,98.40
2018-12-22T05:18:46.527Z,98.40
2018-12-22T05:21:15.295Z,98.40
2018-12-22T05:23:44.043Z,98.40
2018-12-22T05:26:12.870Z,98.50
2018-12-22T05:28:41.714Z,98.70
2018-12-22T05:31:10.546Z,98.50
2018-12-22T05:33:39.315Z,98.70
2018-12-22T05:36:08.135Z,98.50
2018-12-22T05:38:36.959Z,98.30
2018-12-22T05:41:05.669Z,98.60
2018-12-22T05:43:34.343Z,98.60
2018-12-22T05:46:03.167Z,98.10
2018-12-22T05:48:31.830Z,98.50
2018-12-22T05:51:00.715Z,98.60
2018-12-22T05:53:29.559Z,98.50
2018-12-22T05:55:58.369Z,98.50
2018-12-22T05:58:27.251Z,98.60
2018-12-22T06:00:55.971Z,98.60
2018-12-22T06:03:24.683Z,98.50
2018-12-22T06:05:53.468Z,98.50
2018-12-22T06:08:22.556Z,98.40
2018-12-22T06:10:51.318Z,98.40
2018-12-22T06:13:20.029Z,98.40
2018-12-22T06:15:48.726Z,98.50
2018-12-22T06:18:17.452Z,98.50
2018-12-22T06:20:46.246Z,98.50
2018-12-22T06:23:15.336Z,98.50
2018-12-22T06:25:44.115Z,98.40
2018-12-22T06:28:12.884Z,98.40
2018-12-22T06:30:41.653Z,98.20
2018-12-22T06:33:10.346Z,98.60
2018-12-22T06:35:39.046Z,98.00
2018-12-22T06:38:08.810Z,98.20
2018-12-22T06:40:37.658Z,98.40
2018-12-22T06:43:06.475Z,98.60
2018-12-22T06:45:35.182Z,98.30
2018-12-22T06:48:04.053Z,98.30
2018-12-22T06:50:32.744Z,98.20
2018-12-22T06:53:01.483Z,98.20
2018-12-22T06:55:30.298Z,98.20
2018-12-22T06:57:58.995Z,98.70
2018-12-22T07:00:27.900Z,98.10
2018-12-22T07:02:56.582Z,98.30
2018-12-22T07:05:25.374Z,98.70
2018-12-22T07:07:54.138Z,98.20
2018-12-22T07:10:22.844Z,98.00
2018-12-22T07:12:51.603Z,97.70
2018-12-22T07:15:20.455Z,97.60
2018-12-22T07:17:49.219Z,97.40
2018-12-22T07:20:18.083Z,97.30
2018-12-22T07:22:46.916Z,97.40
2018-12-22T07:25:16.733Z,97.60
2018-12-22T07:27:45.446Z,97.60
2018-12-22T07:30:14.201Z,97.50
2018-12-22T07:32:42.906Z,97.30
2018-12-22T07:35:11.760Z,97.30
2018-12-22T07:37:40.627Z,97.50
2018-12-22T07:40:09.399Z,97.20
2018-12-22T07:42:39.441Z,97.30
2018-12-22T07:45:08.422Z,97.20
2018-12-22T07:47:37.216Z,96.50
2018-12-22T07:50:06.575Z,97.00
2018-12-22T07:52:35.322Z,97.00
2018-12-22T07:55:04.171Z,97.00
2018-12-22T07:57:33.062Z,96.70
2018-12-22T08:00:01.782Z,97.00
2018-12-22T08:02:30.764Z,97.10
2018-12-22T08:04:59.548Z,96.90
2018-12-22T08:07:28.238Z,96.90
2018-12-22T08:09:56.932Z,96.90
2018-12-22T08:12:26.732Z,96.90
2018-12-22T08:14:55.443Z,97.10
2018-12-22T08:17:24.108Z,96.90
2018-12-22T08:19:52.887Z,96.50
2018-12-22T08:22:21.580Z,96.70
2018-12-22T08:24:50.389Z,96.60
2018-12-22T08:27:19.138Z,97.00
2018-12-22T08:29:47.881Z,96.40
2018-12-22T08:32:16.623Z,96.50
2018-12-22T08:34:45.374Z,96.30
2018-12-22T08:37:14.070Z,96.50
2018-12-22T08:39:42.833Z,96.70
2018-12-22T08:42:11.587Z,96.60
2018-12-22T08:44:40.399Z,96.50
2018-12-22T08:47:09.184Z,96.10
2018-12-22T08:49:37.875Z,96.30
2018-12-22T08:52:06.719Z,96.20
2018-12-22T08:54:35.578Z,96.40
2018-12-22T08:57:04.427Z,96.60
2018-12-22T08:59:33.435Z,96.60
2018-12-22T09:02:02.191Z,96.20
2018-12-22T09:04:31.997Z,96.50
2018-12-22T09:07:00.791Z,96.20
2018-12-22T09:09:29.649Z,95.90
2018-12-22T09:11:58.414Z,95.90
2018-12-22T09:14:27.120Z,96.50
2018-12-22T09:16:55.989Z,96.40
2018-12-22T09:19:24.850Z,96.80
2018-12-22T09:21:53.579Z,96.70
2018-12-22T09:24:22.363Z,96.70
2018-12-22T09:26:51.075Z,96.40
2018-12-22T09:29:19.804Z,96.90
2018-12-22T09:31:48.505Z,96.20
2018-12-22T09:34:17.293Z,96.60
2018-12-22T09:36:46.122Z,96.20
2018-12-22T09:39:14.980Z,96.00
2018-12-22T09:41:43.739Z,96.10
2018-12-22T09:44:12.573Z,95.90
2018-12-22T09:46:41.335Z,96.50
2018-12-22T09:49:10.158Z,96.30
2018-12-22T09:51:39.051Z,96.30
2018-12-22T09:54:07.773Z,96.60
2018-12-22T09:56:36.479Z,96.40
2018-12-22T09:59:06.439Z,96.20
2018-12-22T10:01:35.421Z,96.10
2018-12-22T10:04:04.231Z,96.70
2018-12-22T10:06:32.983Z,96.60
2018-12-22T10:09:01.742Z,97.00
2018-12-22T10:11:31.614Z,96.60
2018-12-22T10:14:00.390Z,96.50
2018-12-22T10:16:29.175Z,96.10
2018-12-22T10:18:58.045Z,96.20
2018-12-22T10:21:26.815Z,96.30
2018-12-22T10:23:55.554Z,96.00
2018-12-22T10:26:25.368Z,95.90
2018-12-22T10:28:54.164Z,95.60
2018-12-22T10:31:22.998Z,96.00
2018-12-22T10:33:51.863Z,95.90
2018-12-22T10:36:20.619Z,95.80
2018-12-22T10:38:49.367Z,96.10
2018-12-22T10:41:18.031Z,95.30
2018-12-22T10:43:46.777Z,95.00
2018-12-22T10:46:15.546Z,95.30
2018-12-22T10:48:44.310Z,94.70
2018-12-22T10:51:13.084Z,94.60
2018-12-22T10:53:41.891Z,94.80
2018-12-22T10:56:10.650Z,94.70
2018-12-22T10:58:39.351Z,94.40
2018-12-22T11:01:08.150Z,94.10
2018-12-22T11:03:36.952Z,94.30
2018-12-22T11:06:05.711Z,94.40
2018-12-22T11:08:35.483Z,94.90
2018-12-22T11:11:04.204Z,94.50
2018-12-22T11:13:33.011Z,94.30
2018-12-22T11:16:01.774Z,94.30
2018-12-22T11:18:30.603Z,94.30
2018-12-22T11:20:59.481Z,94.80
2018-12-22T11:23:28.174Z,94.80
2018-12-22T11:25:56.938Z,94.60
2018-12-22T11:28:25.826Z,95.00
2018-12-22T11:30:55.598Z,95.30
2018-12-22T11:33:24.390Z,95.00
2018-12-22T11:35:53.095Z,95.10
2018-12-22T11:38:23.558Z,95.30
2018-12-22T11:40:52.370Z,95.70
2018-12-22T11:43:21.202Z,95.40
2018-12-22T11:45:50.043Z,96.00
2018-12-22T11:49:36.756Z,95.90
2018-12-22T11:52:05.553Z,95.90
2018-12-22T11:54:34.426Z,96.20
2018-12-22T11:57:03.295Z,96.30
2018-12-22T11:59:32.180Z,96.60
2018-12-22T12:02:09.313Z,96.30
2018-12-22T12:04:31.662Z,96.30
2018-12-22T12:07:00.469Z,96.70
2018-12-22T12:09:29.204Z,96.80
2018-12-22T12:11:58.085Z,96.80
2018-12-22T12:14:27.647Z,96.90
2018-12-22T12:17:39.347Z,96.60
2018-12-22T12:20:08.199Z,96.70
2018-12-22T12:22:36.892Z,96.80
2018-12-22T12:25:06.771Z,96.30
2018-12-22T12:27:35.557Z,96.40
2018-12-22T12:30:06.511Z,96.60
2018-12-22T12:32:35.362Z,96.70
2018-12-22T12:35:04.483Z,96.40
2018-12-22T12:37:33.259Z,96.40
2018-12-22T12:40:02.041Z,96.70
2018-12-22T12:42:30.820Z,96.50
2018-12-22T12:44:59.551Z,96.70
2018-12-22T12:47:28.334Z,96.30
2018-12-22T12:49:57.038Z,96.20
2018-12-22T12:52:26.102Z,96.30
2018-12-22T12:54:54.894Z,96.20
2018-12-22T12:57:23.702Z,96.60
2018-12-22T12:59:52.454Z,96.30
2018-12-22T13:02:21.267Z,96.30
2018-12-22T13:04:50.023Z,96.30
2018-12-22T13:07:18.788Z,96.50
2018-12-22T13:09:47.521Z,96.30
2018-12-22T13:12:20.160Z,96.40
2018-12-22T13:14:50.658Z,96.20
2018-12-22T13:17:19.427Z,96.40
2018-12-22T13:19:48.215Z,96.80
2018-12-22T13:22:17.026Z,96.30
2018-12-22T13:24:45.845Z,96.30
2018-12-22T13:27:14.607Z,96.20
2018-12-22T13:29:43.317Z,95.80
2018-12-22T13:32:12.059Z,96.30
2018-12-22T13:34:42.780Z,96.20
2018-12-22T13:37:11.536Z,95.90
2018-12-22T13:39:40.251Z,95.80
2018-12-22T13:42:09.071Z,95.90
2018-12-22T13:44:37.801Z,96.20
2018-12-22T13:47:07.519Z,96.10
2018-12-22T13:49:36.362Z,96.30
2018-12-22T13:52:05.323Z,96.00
2018-12-22T13:54:34.062Z,96.40
2018-12-22T13:57:02.851Z,96.10
2018-12-22T13:59:31.661Z,96.40
2018-12-22T14:02:03.331Z,96.30
2018-12-22T14:04:33.747Z,96.50
2018-12-22T14:07:03.943Z,96.60
2018-12-22T14:09:32.808Z,96.70
2018-12-22T14:12:01.566Z,96.30
2018-12-22T14:14:33.704Z,96.30
2018-12-22T14:17:07.903Z,96.50
2018-12-22T14:19:37.591Z,96.70
2018-12-22T14:22:07.143Z,96.80
2018-12-22T14:24:43.080Z,96.80
2018-12-22T14:27:12.032Z,96.90
2018-12-22T14:29:40.752Z,96.60
2018-12-22T14:32:09.507Z,96.80
2018-12-22T14:34:52.054Z,97.20
2018-12-22T14:37:20.902Z,96.80
2018-12-22T14:39:49.718Z,97.00
2018-12-22T14:42:18.626Z,96.90
2018-12-22T14:44:47.378Z,97.20
2018-12-22T14:47:16.050Z,97.00
2018-12-22T14:49:44.802Z,97.20
2018-12-22T14:52:13.554Z,97.30
2018-12-22T14:54:42.232Z,97.10
2018-12-22T14:57:11.967Z,97.10
2018-12-22T14:59:40.887Z,97.20
2018-12-22T15:02:09.651Z,97.40
2018-12-22T15:04:38.566Z,97.60
2018-12-22T15:07:07.884Z,97.50
2018-12-22T15:09:36.736Z,97.50
2018-12-22T15:12:05.561Z,97.50
2018-12-22T15:14:34.324Z,97.60
2018-12-22T15:17:03.082Z,97.40
2018-12-22T15:19:34.262Z,97.80
2018-12-22T15:22:03.099Z,98.00
2018-12-22T15:24:31.796Z,98.50
2018-12-22T15:27:00.503Z,98.70
2018-12-22T15:29:29.281Z,98.70
2018-12-22T15:31:58.032Z,98.20
2018-12-22T15:34:26.743Z,98.80
2018-12-22T15:36:55.516Z,98.70
2018-12-22T15:39:24.359Z,98.70
2018-12-22T15:41:53.166Z,98.50
2018-12-22T15:44:22.042Z,98.60
2018-12-22T15:46:50.842Z,98.90
2018-12-22T15:49:21.887Z,98.60
2018-12-22T15:51:50.941Z,99.10
2018-12-22T15:54:19.592Z,99.10
2018-12-22T15:56:48.327Z,98.90
2018-12-22T15:59:17.114Z,98.90
2018-12-22T16:01:45.924Z,98.60
2018-12-22T16:04:14.717Z,98.80
2018-12-22T16:06:43.688Z,98.80
2018-12-22T16:09:12.465Z,98.60
2018-12-22T16:11:41.215Z,98.30
2018-12-22T16:14:09.987Z,98.40
2018-12-22T16:16:39.695Z,98.40
2018-12-22T16:19:08.391Z,98.00
2018-12-22T16:21:37.090Z,98.40
2018-12-22T16:24:06.901Z,98.00
2018-12-22T16:26:35.589Z,98.40
2018-12-22T16:29:11.758Z,98.20
2018-12-22T16:31:40.563Z,98.30
2018-12-22T16:34:09.351Z,98.60
2018-12-22T16:36:38.027Z,98.40
2018-12-22T16:39:07.985Z,97.90
2018-12-22T16:41:36.777Z,98.00
2018-12-22T16:44:08.444Z,98.10
2018-12-22T16:46:37.200Z,97.70
2018-12-22T16:49:06.094Z,96.80
2018-12-22T16:51:34.829Z,97.40
2018-12-22T16:54:03.650Z,97.30
2018-12-22T16:56:32.441Z,97.60
2018-12-22T16:59:01.824Z,97.60
2018-12-22T17:01:39.999Z,97.30
2018-12-22T17:04:08.887Z,97.30
2018-12-22T17:06:39.507Z,97.10
2018-12-22T17:09:08.435Z,97.40
2018-12-22T17:11:38.359Z,97.70
2018-12-22T17:14:07.186Z,97.80
2018-12-22T17:16:36.436Z,97.70
2018-12-22T17:19:05.243Z,97.50
2018-12-22T17:21:43.478Z,97.50
2018-12-22T17:24:21.312Z,97.40
2018-12-22T17:26:50.358Z,97.30
2018-12-22T17:29:19.128Z,97.30
2018-12-22T17:31:47.897Z,97.10
2018-12-22T17:34:16.638Z,97.20
2018-12-22T17:36:45.453Z,97.20
2018-12-22T17:39:15.194Z,97.10
2018-12-22T17:41:45.122Z,97.20
2018-12-22T17:44:13.842Z,97.30
2018-12-22T17:46:42.551Z,97.30
2018-12-22T17:49:11.338Z,97.60
2018-12-22T17:51:40.238Z,97.30
2018-12-22T17:54:08.978Z,97.10
2018-12-22T17:56:37.835Z,97.10
2018-12-22T17:59:06.493Z,97.30
2018-12-22T18:01:35.261Z,97.30
2018-12-22T18:04:04.051Z,97.20
2018-12-22T18:06:32.863Z,97.40
2018-12-22T18:09:01.616Z,97.30
2018-12-22T18:11:31.114Z,97.40
2018-12-22T18:13:59.950Z,97.50
2018-12-22T18:16:28.756Z,97.50
2018-12-22T18:18:57.619Z,97.70
2018-12-22T18:21:26.450Z,97.90
2018-12-22T18:23:55.237Z,98.70
2018-12-22T18:26:25.142Z,98.00
2018-12-22T18:28:54.110Z,98.20
2018-12-22T18:31:22.894Z,98.30
2018-12-22T18:33:51.698Z,98.40
2018-12-22T18:36:20.491Z,98.60
2018-12-22T18:38:49.159Z,98.60
2018-12-22T18:41:17.938Z,98.60
2018-12-22T18:43:46.702Z,98.90
2018-12-22T18:46:15.451Z,99.20
2018-12-22T18:48:44.901Z,98.70
2018-12-22T18:51:13.563Z,99.30
2018-12-22T18:53:42.422Z,98.80
2018-12-22T18:56:11.241Z,98.70
2018-12-22T18:58:40.030Z,98.50
2018-12-22T19:01:08.849Z,98.80
2018-12-22T19:03:44.759Z,98.60
2018-12-22T19:06:08.570Z,98.40
2018-12-22T19:08:37.462Z,98.30
2018-12-22T19:11:09.424Z,98.30
2018-12-22T19:13:38.135Z,98.00
2018-12-22T19:16:07.017Z,98.00
2018-12-22T19:18:35.747Z,97.80
2018-12-22T19:21:04.654Z,97.90
2018-12-22T19:23:33.510Z,97.80
2018-12-22T19:26:02.236Z,97.60
2018-12-22T19:28:31.067Z,97.50
2018-12-22T19:30:59.760Z,97.90
2018-12-22T19:33:28.675Z,98.20
2018-12-22T19:35:57.418Z,97.90
2018-12-22T19:38:26.222Z,97.80
2018-12-22T19:40:55.092Z,98.10
2018-12-22T19:43:23.976Z,98.20
2018-12-22T19:45:52.828Z,97.70
2018-12-22T19:48:21.537Z,97.60
2018-12-22T19:50:50.205Z,97.90
2018-12-22T19:53:20.060Z,97.80
2018-12-22T19:55:48.850Z,97.80
2018-12-22T19:58:17.643Z,97.50
2018-12-22T20:00:46.329Z,97.80
2018-12-22T20:03:15.007Z,97.90
2018-12-22T20:05:43.764Z,97.30
2018-12-22T20:08:12.466Z,97.40
2018-12-22T20:10:41.151Z,97.10
2018-12-22T20:13:09.903Z,96.80
2018-12-22T20:15:38.620Z,96.80
2018-12-22T20:18:07.322Z,96.60
2018-12-22T20:20:36.126Z,96.60
2018-12-22T20:23:05.071Z,96.50
2018-12-22T20:25:34.865Z,96.60
2018-12-22T20:28:03.689Z,96.80
2018-12-22T20:30:32.442Z,96.70
2018-12-22T20:33:01.187Z,96.40
2018-12-22T20:35:30.224Z,96.60
2018-12-22T20:37:58.975Z,96.70
2018-12-22T20:40:27.678Z,96.60
2018-12-22T20:42:56.461Z,96.80
2018-12-22T20:45:25.178Z,96.70
2018-12-22T20:47:53.902Z,96.40
2018-12-22T20:50:22.634Z,96.30
2018-12-22T20:52:51.501Z,96.30
2018-12-22T20:55:20.311Z,96.50
2018-12-22T20:57:49.007Z,96.20
2018-12-22T21:00:17.796Z,96.00
2018-12-22T21:02:46.646Z,96.10
2018-12-22T21:05:16.358Z,96.10
2018-12-22T21:07:45.082Z,96.20
2018-12-22T21:10:13.901Z,96.10
2018-12-22T21:12:42.668Z,96.20
2018-12-22T21:15:11.395Z,96.30
2018-12-22T21:17:40.175Z,96.00
2018-12-22T21:20:08.870Z,96.10
2018-12-22T21:22:37.591Z,96.10
2018-12-22T21:25:06.452Z,96.00
2018-12-22T21:27:35.142Z,96.00
2018-12-22T21:30:04.433Z,95.80
2018-12-22T21:32:33.249Z,96.00
2018-12-22T21:35:02.087Z,96.20
2018-12-22T21:37:30.885Z,95.70
2018-12-22T21:39:59.576Z,95.80
2018-12-22T21:42:28.235Z,95.90
2018-12-22T21:44:56.969Z,96.10
2018-12-22T21:47:25.642Z,96.00
2018-12-22T21:49:54.328Z,96.20
2018-12-22T21:52:23.091Z,96.00
2018-12-22T21:54:52.722Z,96.30
2018-12-22T21:57:21.380Z,96.10
2018-12-22T21:59:50.153Z,96.30
2018-12-22T22:02:18.807Z,96.10
2018-12-22T22:04:47.606Z,95.90
2018-12-22T22:07:16.419Z,95.80
2018-12-22T22:09:45.062Z,95.80
2018-12-22T22:12:13.871Z,96.10
2018-12-22T22:14:42.552Z,95.70
2018-12-22T22:17:11.318Z,95.80
2018-12-22T22:19:40.087Z,95.70
2018-12-22T22:22:09.082Z,96.00
2018-12-22T22:24:37.773Z,95.90
2018-12-22T22:27:06.993Z,95.80
2018-12-22T22:29:35.716Z,96.00
2018-12-22T22:32:04.414Z,96.00
2018-12-22T22:34:33.146Z,95.90
2018-12-22T22:37:01.928Z,96.10
2018-12-22T22:39:30.627Z,96.00
2018-12-22T22:41:59.632Z,96.10
2018-12-22T22:44:28.384Z,96.00
2018-12-22T22:46:57.119Z,96.10
2018-12-22T22:49:25.834Z,96.00
2018-12-22T22:51:54.514Z,96.00
2018-12-22T22:54:23.218Z,96.40
2018-12-22T22:56:51.895Z,96.20
2018-12-22T22:59:20.590Z,96.20
2018-12-22T23:01:49.318Z,96.20
2018-12-22T23:04:18.054Z,96.30
2018-12-22T23:06:46.759Z,96.40
2018-12-22T23:09:15.431Z,96.20
2018-12-22T23:11:44.187Z,96.50
2018-12-22T23:14:12.918Z,96.80
2018-12-22T23:16:41.929Z,96.90
2018-12-22T23:19:10.607Z,96.80
2018-12-22T23:21:39.430Z,97.30
2018-12-22T23:24:08.207Z,96.80
2018-12-22T23:26:36.978Z,97.00
2018-12-22T23:29:05.755Z,97.20
2018-12-22T23:31:34.504Z,97.20
2018-12-22T23:34:03.212Z,97.70
2018-12-22T23:36:32.030Z,97.50
2018-12-22T23:39:00.909Z,97.20
2018-12-22T23:41:31.013Z,97.40
2018-12-22T23:43:59.863Z,97.20
2018-12-22T23:46:28.582Z,97.30
2018-12-22T23:48:57.267Z,97.80
2018-12-22T23:51:26.031Z,97.50
2018-12-22T23:53:54.758Z,97.40
2018-12-22T23:56:23.567Z,97.40
2018-12-22T23:58:52.282Z,97.30
